createdAt,value
2022-10-17T00:00:34.056Z,99958.03
2022-10-17T00:03:21.540Z,99954.63
2022-10-17T00:06:12.070Z,99953.81
2022-10-17T00:08:59.697Z,99953.03
2022-10-17T00:11:46.918Z,99958.53
2022-10-17T00:14:34.630Z,99956.94
2022-10-17T00:17:23.372Z,99962.44
2022-10-17T00:20:12.507Z,99962.19
2022-10-17T00:23:00.603Z,99965.06
2022-10-17T00:25:47.928Z,99966.09
2022-10-17T00:28:35.396Z,99972.38
2022-10-17T00:31:25.005Z,99973.94
2022-10-17T00:34:13.949Z,99971.81
2022-10-17T00:37:01.522Z,99982.88
2022-10-17T00:39:48.931Z,99973.13
2022-10-17T00:42:36.525Z,99976.78
2022-10-17T00:45:26.483Z,99971.50
2022-10-17T00:48:17.236Z,99983.28
2022-10-17T00:51:08.075Z,99988.78
2022-10-17T00:53:55.711Z,99978.53
2022-10-17T00:56:44.788Z,99994.28
2022-10-17T00:59:35.823Z,99988.28
2022-10-17T01:02:24.041Z,99994.75
2022-10-17T01:05:14.467Z,99995.56
2022-10-17T01:08:04.664Z,99993.19
2022-10-17T01:11:07.716Z,99999.50
2022-10-17T01:14:02.928Z,99998.94
2022-10-17T01:17:00.961Z,100005.25
2022-10-17T01:20:14.439Z,99998.41
2022-10-17T01:23:24.302Z,100003.59
2022-10-17T01:26:20.863Z,100010.44
2022-10-17T01:29:33.232Z,100008.06
2022-10-17T01:32:30.790Z,100003.31
2022-10-17T01:35:27.411Z,100006.19
2022-10-17T01:38:22.236Z,99999.59
2022-10-17T01:41:20.419Z,99997.75
2022-10-17T01:44:15.058Z,99995.59
2022-10-17T01:47:07.803Z,100000.06
2022-10-17T01:50:02.568Z,99992.44
2022-10-17T01:52:55.148Z,99990.84
2022-10-17T01:55:46.427Z,99993.47
2022-10-17T01:58:39.567Z,99993.47
2022-10-17T02:01:30.792Z,99991.09
2022-10-17T02:04:21.280Z,100000.28
2022-10-17T02:07:11.935Z,99992.66
2022-10-17T02:09:59.139Z,99994.72
2022-10-17T02:12:55.875Z,99988.13
2022-10-17T02:16:10.169Z,99993.31
2022-10-17T02:19:29.059Z,99987.47
2022-10-17T02:22:31.510Z,99976.38
2022-10-17T02:25:28.971Z,99996.28
2022-10-17T02:28:23.058Z,99999.97
2022-10-17T02:31:15.662Z,99981.84
2022-10-17T02:34:08.469Z,99987.34
2022-10-17T02:36:59.974Z,99980.28
2022-10-17T02:39:49.793Z,99988.16
2022-10-17T02:42:37.741Z,99994.16
2022-10-17T02:45:28.575Z,99994.97
2022-10-17T02:48:26.623Z,100000.44
2022-10-17T02:51:24.592Z,100000.44
2022-10-17T02:54:20.184Z,99998.88
2022-10-17T02:57:15.453Z,99996.00
2022-10-17T03:00:07.259Z,99997.59
2022-10-17T03:02:55.908Z,100005.22
2022-10-17T03:05:43.127Z,100000.75
2022-10-17T03:08:30.567Z,100009.66
2022-10-17T03:11:19.218Z,100011.47
2022-10-17T03:14:08.177Z,99996.78
2022-10-17T03:16:55.700Z,99999.66
2022-10-17T03:19:42.998Z,100002.53
2022-10-17T03:22:30.621Z,99994.59
2022-10-17T03:25:21.334Z,100005.59
2022-10-17T03:28:10.745Z,100008.47
2022-10-17T03:30:59.509Z,100011.31
2022-10-17T03:33:47.824Z,100010.50
2022-10-17T03:36:35.663Z,100017.81
2022-10-17T03:39:23.101Z,100009.09
2022-10-17T03:42:10.363Z,100009.59
2022-10-17T03:44:57.845Z,100010.88
2022-10-17T03:47:46.477Z,100014.53
2022-10-17T03:50:34.889Z,100020.56
2022-10-17T03:53:23.047Z,100013.19
2022-10-17T03:56:12.759Z,100015.00
2022-10-17T03:59:00.542Z,100012.63
2022-10-17T04:01:50.148Z,100031.78
2022-10-17T04:04:40.620Z,100038.06
2022-10-17T04:07:28.250Z,100046.19
2022-10-17T04:10:15.987Z,100044.59
2022-10-17T04:13:03.307Z,100046.66
2022-10-17T04:15:56.872Z,100046.34
2022-10-17T04:18:45.586Z,100054.47
2022-10-17T04:21:34.871Z,100047.63
2022-10-17T04:24:26.830Z,100052.56
2022-10-17T04:27:21.543Z,100050.19
2022-10-17T04:30:10.070Z,100051.19
2022-10-17T04:32:57.626Z,100049.88
2022-10-17T04:35:45.032Z,100046.97
2022-10-17T04:38:35.305Z,100061.88
2022-10-17T04:41:22.814Z,100053.69
2022-10-17T04:44:11.318Z,100058.16
2022-10-17T04:47:02.560Z,100058.16
2022-10-17T04:49:49.817Z,100052.91
2022-10-17T04:52:38.202Z,100053.69
2022-10-17T04:55:27.433Z,100055.31
2022-10-17T04:58:14.984Z,100039.56
2022-10-17T05:01:07.390Z,100037.19
2022-10-17T05:03:56.039Z,100040.84
2022-10-17T05:06:43.665Z,100047.91
2022-10-17T05:09:58.797Z,100049.69
2022-10-17T05:12:48.529Z,100060.41
2022-10-17T05:15:38.753Z,100061.44
2022-10-17T05:18:26.558Z,100056.19
2022-10-17T05:21:14.229Z,100064.06
2022-10-17T05:24:01.574Z,100055.63
2022-10-17T05:26:51.238Z,100055.63
2022-10-17T05:29:40.390Z,100062.94
2022-10-17T05:32:38.350Z,100067.63
2022-10-17T05:35:25.950Z,100063.41
2022-10-17T05:38:13.743Z,100069.94
2022-10-17T05:41:05.592Z,100076.94
2022-10-17T05:43:53.577Z,100077.41
2022-10-17T05:46:52.348Z,100079.78
2022-10-17T05:49:48.323Z,100086.34
2022-10-17T05:52:42.876Z,100085.88
2022-10-17T05:55:35.960Z,100080.09
2022-10-17T05:58:45.625Z,100084.78
2022-10-17T06:01:36.568Z,100083.91
2022-10-17T06:04:06.948Z,100079.47
2022-10-17T06:06:37.912Z,100080.25
2022-10-17T06:09:07.849Z,100073.19
2022-10-17T06:11:40.478Z,100100.19
2022-10-17T06:14:09.766Z,100096.53
2022-10-17T06:16:40.817Z,100089.50
2022-10-17T06:19:12.094Z,100091.06
2022-10-17T06:21:41.137Z,100091.06
2022-10-17T06:24:14.679Z,100097.34
2022-10-17T06:26:45.156Z,100104.94
2022-10-17T06:29:16.952Z,100096.84
2022-10-17T06:31:50.110Z,100103.69
2022-10-17T06:34:21.339Z,100105.03
2022-10-17T06:36:50.959Z,100106.38
2022-10-17T06:39:21.336Z,100111.13
2022-10-17T06:41:58.557Z,100113.03
2022-10-17T06:44:41.735Z,100119.16
2022-10-17T06:47:40.017Z,100112.97
2022-10-17T06:50:37.956Z,100110.97
2022-10-17T06:53:16.070Z,100111.59
2022-10-17T06:55:54.139Z,100116.41
2022-10-17T06:58:55.397Z,100122.75
2022-10-17T07:01:34.287Z,100124.34
2022-10-17T07:04:05.986Z,100117.81
2022-10-17T07:06:38.262Z,100120.78
2022-10-17T07:09:13.952Z,100115.00
2022-10-17T07:11:43.296Z,100124.78
2022-10-17T07:14:12.299Z,100122.03
2022-10-17T07:16:42.148Z,100124.53
2022-10-17T07:19:18.095Z,100127.59
2022-10-17T07:21:49.084Z,100136.66
2022-10-17T07:24:18.557Z,100134.47
2022-10-17T07:26:53.786Z,100136.97
2022-10-17T07:29:23.181Z,100137.03
2022-10-17T07:32:15.277Z,100140.94
2022-10-17T07:34:44.595Z,100133.16
2022-10-17T07:37:15.071Z,100132.19
2022-10-17T07:39:50.463Z,100131.22
2022-10-17T07:42:19.588Z,100132.13
2022-10-17T07:44:48.540Z,100134.56
2022-10-17T07:47:17.945Z,100135.19
2022-10-17T07:49:48.884Z,100142.13
2022-10-17T07:52:19.574Z,100145.88
2022-10-17T07:54:48.511Z,100148.00
2022-10-17T07:57:17.555Z,100154.41
2022-10-17T07:59:47.907Z,100157.84
2022-10-17T08:02:23.595Z,100152.63
2022-10-17T08:04:53.015Z,100157.66
2022-10-17T08:07:28.371Z,100156.13
2022-10-17T08:09:58.349Z,100166.19
2022-10-17T08:12:27.764Z,100155.97
2022-10-17T08:14:57.074Z,100167.88
2022-10-17T08:17:26.214Z,100168.72
2022-10-17T08:19:55.429Z,100171.66
2022-10-17T08:22:26.032Z,100170.88
2022-10-17T08:24:55.099Z,100178.28
2022-10-17T08:27:25.505Z,100170.94
2022-10-17T08:29:54.597Z,100163.03
2022-10-17T08:32:26.654Z,100170.16
2022-10-17T08:34:59.722Z,100161.81
2022-10-17T08:37:31.858Z,100168.94
2022-10-17T08:40:01.752Z,100168.94
2022-10-17T08:42:51.870Z,100170.78
2022-10-17T08:45:28.779Z,100160.78
2022-10-17T08:48:01.784Z,100166.56
2022-10-17T08:50:38.482Z,100165.53
2022-10-17T08:53:18.207Z,100159.72
2022-10-17T08:55:49.841Z,100169.75
2022-10-17T08:58:23.454Z,100156.00
2022-10-17T09:01:09.029Z,100154.38
2022-10-17T09:04:01.470Z,100148.47
2022-10-17T09:06:36.591Z,100146.38
2022-10-17T09:09:23.882Z,100145.25
2022-10-17T09:12:06.866Z,100144.94
2022-10-17T09:15:05.737Z,100150.19
2022-10-17T09:17:49.749Z,100152.50
2022-10-17T09:20:23.700Z,100152.44
2022-10-17T09:22:58.701Z,100150.25
2022-10-17T09:25:29.744Z,100153.13
2022-10-17T09:28:11.749Z,100158.59
2022-10-17T09:30:46.254Z,100152.66
2022-10-17T09:33:28.444Z,100150.97
2022-10-17T09:36:11.553Z,100157.19
2022-10-17T09:38:43.994Z,100162.84
2022-10-17T09:44:20.342Z,100165.13
2022-10-17T09:47:03.477Z,100172.94
2022-10-17T09:49:36.315Z,100166.47
2022-10-17T09:52:13.275Z,100170.31
2022-10-17T09:54:47.804Z,100174.50
2022-10-17T09:57:20.428Z,100167.25
2022-10-17T09:59:58.313Z,100177.75
2022-10-17T10:05:29.747Z,100174.00
2022-10-17T10:08:05.709Z,100178.59
2022-10-17T10:10:35.340Z,100177.09
2022-10-17T10:13:16.314Z,100182.25
2022-10-17T10:15:48.068Z,100191.13
2022-10-17T10:18:36.270Z,100189.41
2022-10-17T10:21:12.684Z,100195.06
2022-10-17T10:23:44.218Z,100190.88
2022-10-17T10:26:25.860Z,100186.78
2022-10-17T10:29:01.252Z,100193.50
2022-10-17T10:31:38.473Z,100199.72
2022-10-17T10:34:21.324Z,100199.06
2022-10-17T10:37:18.400Z,100201.03
2022-10-17T10:39:51.357Z,100203.03
2022-10-17T10:42:28.875Z,100190.03
2022-10-17T10:45:03.787Z,100187.19
2022-10-17T10:47:34.127Z,100184.31
2022-10-17T10:50:25.695Z,100185.13
2022-10-17T10:53:09.333Z,100182.09
2022-10-17T10:55:45.334Z,100185.94
2022-10-17T10:58:28.924Z,100183.34
2022-10-17T11:01:07.384Z,100182.72
2022-10-17T11:03:43.200Z,100183.69
2022-10-17T11:06:20.729Z,100181.66
2022-10-17T11:08:53.740Z,100177.06
2022-10-17T11:11:32.167Z,100174.22
2022-10-17T11:14:11.721Z,100173.59
2022-10-17T11:16:49.207Z,100179.63
2022-10-17T11:19:26.249Z,100185.81
2022-10-17T11:22:08.824Z,100180.81
2022-10-17T11:24:44.127Z,100181.34
2022-10-17T11:27:13.128Z,100193.81
2022-10-17T11:29:43.451Z,100186.19
2022-10-17T11:32:19.418Z,100188.28
2022-10-17T11:34:53.360Z,100184.22
2022-10-17T11:37:27.604Z,100192.72
2022-10-17T11:40:01.582Z,100194.81
2022-10-17T11:42:36.324Z,100198.75
2022-10-17T11:45:11.841Z,100202.88
2022-10-17T11:47:47.357Z,100200.97
2022-10-17T11:53:18.674Z,100205.56
2022-10-17T11:55:48.607Z,100196.28
2022-10-17T11:58:31.145Z,100205.22
2022-10-17T12:01:11.183Z,100209.78
2022-10-17T12:04:06.576Z,100208.03
2022-10-17T12:06:53.178Z,100204.09
2022-10-17T12:09:33.562Z,100199.53
2022-10-17T12:12:04.544Z,100203.19
2022-10-17T12:14:45.704Z,100211.78
2022-10-17T12:17:38.948Z,100211.31
2022-10-17T12:20:34.446Z,100197.13
2022-10-17T12:23:23.198Z,100205.09
2022-10-17T12:25:57.012Z,100200.59
2022-10-17T12:28:31.782Z,100195.84
2022-10-17T12:31:05.709Z,100197.78
2022-10-17T12:33:39.027Z,100208.69
2022-10-17T12:36:48.886Z,100198.91
2022-10-17T12:39:53.877Z,100196.47
2022-10-17T12:42:50.435Z,100199.66
2022-10-17T12:45:49.249Z,100205.53
2022-10-17T12:49:02.319Z,100198.34
2022-10-17T12:51:35.616Z,100203.81
2022-10-17T12:54:13.536Z,100207.13
2022-10-17T12:56:45.933Z,100194.53
2022-10-17T12:59:19.189Z,100193.06
2022-10-17T13:01:52.083Z,100189.22
2022-10-17T13:04:21.599Z,100195.16
2022-10-17T13:06:55.499Z,100198.72
2022-10-17T13:09:29.957Z,100199.09
2022-10-17T13:12:04.781Z,100194.19
2022-10-17T13:14:35.336Z,100190.84
2022-10-17T13:17:07.367Z,100191.44
2022-10-17T13:19:44.721Z,100193.41
2022-10-17T13:22:19.915Z,100190.81
2022-10-17T13:24:52.319Z,100192.19
2022-10-17T13:27:29.588Z,100193.28
2022-10-17T13:30:01.784Z,100194.66
2022-10-17T13:32:39.252Z,100185.69
2022-10-17T13:35:11.554Z,100205.41
2022-10-17T13:37:42.772Z,100209.72
2022-10-17T13:43:24.165Z,100217.38
2022-10-17T13:45:55.533Z,100224.09
2022-10-17T13:48:28.863Z,100221.72
2022-10-17T13:51:02.986Z,100225.47
2022-10-17T13:53:35.797Z,100221.53
2022-10-17T13:56:27.949Z,100218.88
2022-10-17T13:59:03.764Z,100225.06
2022-10-17T14:01:33.159Z,100218.94
2022-10-17T14:04:09.424Z,100225.06
2022-10-17T14:06:47.570Z,100225.34
2022-10-17T14:09:25.098Z,100224.03
2022-10-17T14:12:07.925Z,100228.59
2022-10-17T14:14:58.105Z,100233.69
2022-10-17T14:17:28.783Z,100227.38
2022-10-17T14:20:26.600Z,100226.88
2022-10-17T14:23:20.896Z,100229.53
2022-10-17T14:25:42.614Z,100226.94
2022-10-17T14:28:18.440Z,100226.94
2022-10-17T14:30:56.842Z,100228.31
2022-10-17T14:33:30.003Z,100235.00
2022-10-17T14:36:02.451Z,100231.31
2022-10-17T14:38:32.096Z,100231.94
2022-10-17T14:41:37.387Z,100235.16
2022-10-17T14:43:58.450Z,100232.00
2022-10-17T14:46:28.288Z,100228.84
2022-10-17T14:49:05.244Z,100231.19
2022-10-17T14:51:44.830Z,100229.44
2022-10-17T14:54:29.171Z,100242.78
2022-10-17T14:56:58.238Z,100242.59
2022-10-17T14:59:52.969Z,100243.63
2022-10-17T15:02:18.166Z,100246.09
2022-10-17T15:04:47.258Z,100252.47
2022-10-17T15:07:17.578Z,100251.97
2022-10-17T15:09:49.328Z,100254.69
2022-10-17T15:12:23.599Z,100260.63
2022-10-17T15:14:54.799Z,100258.00
2022-10-17T15:17:27.790Z,100262.81
2022-10-17T15:19:57.523Z,100267.09
2022-10-17T15:22:27.033Z,100267.16
2022-10-17T15:24:56.221Z,100265.38
2022-10-17T15:27:27.759Z,100269.69
2022-10-17T15:29:58.408Z,100277.41
2022-10-17T15:32:27.440Z,100279.06
2022-10-17T15:34:56.521Z,100278.06
2022-10-17T15:37:26.873Z,100273.31
2022-10-17T15:39:56.984Z,100283.69
2022-10-17T15:42:30.815Z,100276.03
2022-10-17T15:45:01.297Z,100276.09
2022-10-17T15:47:34.488Z,100279.81
2022-10-17T15:50:04.918Z,100276.66
2022-10-17T15:52:34.300Z,100272.44
2022-10-17T15:55:05.402Z,100279.88
2022-10-17T15:57:39.085Z,100277.50
2022-10-17T16:00:16.937Z,100276.50
2022-10-17T16:02:46.730Z,100272.03
2022-10-17T16:05:19.097Z,100276.84
2022-10-17T16:07:48.374Z,100273.66
2022-10-17T16:10:18.365Z,100276.56
2022-10-17T16:12:49.833Z,100290.13
2022-10-17T16:15:23.650Z,100284.31
2022-10-17T16:17:53.747Z,100292.03
2022-10-17T16:20:23.594Z,100289.19
2022-10-17T16:22:59.559Z,100290.31
2022-10-17T16:25:31.198Z,100293.50
2022-10-17T16:28:01.703Z,100289.31
2022-10-17T16:30:33.420Z,100298.13
2022-10-17T16:33:02.413Z,100298.97
2022-10-17T16:35:36.517Z,100299.00
2022-10-17T16:38:07.435Z,100304.09
2022-10-17T16:40:39.313Z,100303.84
2022-10-17T16:43:08.843Z,100305.47
2022-10-17T16:45:39.331Z,100311.63
2022-10-17T16:48:09.348Z,100320.38
2022-10-17T16:50:41.144Z,100325.72
2022-10-17T16:53:10.434Z,100331.03
2022-10-17T16:55:39.529Z,100331.59
2022-10-17T16:58:08.647Z,100325.25
2022-10-17T17:00:40.755Z,100327.41
2022-10-17T17:03:09.852Z,100337.75
2022-10-17T17:05:38.827Z,100336.75
2022-10-17T17:08:10.393Z,100331.19
2022-10-17T17:10:46.850Z,100339.19
2022-10-17T17:13:16.022Z,100340.28
2022-10-17T17:15:46.791Z,100344.53
2022-10-17T17:18:15.758Z,100337.97
2022-10-17T17:20:44.783Z,100348.88
2022-10-17T17:23:15.901Z,100352.34
2022-10-17T17:25:45.294Z,100352.03
2022-10-17T17:28:14.277Z,100349.44
2022-10-17T17:30:43.266Z,100358.19
2022-10-17T17:33:13.570Z,100348.69
2022-10-17T17:35:42.601Z,100353.75
2022-10-17T17:38:11.581Z,100354.28
2022-10-17T17:40:50.533Z,100357.47
2022-10-17T17:43:20.552Z,100355.38
2022-10-17T17:45:49.627Z,100356.97
2022-10-17T17:48:20.360Z,100368.38
2022-10-17T17:50:49.861Z,100377.09
2022-10-17T17:53:18.920Z,100372.91
2022-10-17T17:55:47.971Z,100369.75
2022-10-17T17:58:16.917Z,100376.09
2022-10-17T18:00:45.880Z,100379.28
2022-10-17T18:03:14.898Z,100372.94
2022-10-17T18:05:45.228Z,100376.63
2022-10-17T18:08:14.226Z,100379.81
2022-10-17T18:10:48.482Z,100384.59
2022-10-17T18:13:17.951Z,100375.59
2022-10-17T18:15:47.008Z,100390.91
2022-10-17T18:18:15.941Z,100386.16
2022-10-17T18:20:46.457Z,100399.66
2022-10-17T18:23:15.448Z,100394.88
2022-10-17T18:25:44.531Z,100389.88
2022-10-17T18:28:13.543Z,100394.66
2022-10-17T18:30:42.582Z,100387.25
2022-10-17T18:33:11.542Z,100398.88
2022-10-17T18:35:40.591Z,100405.47
2022-10-17T18:38:11.031Z,100396.25
2022-10-17T18:40:40.016Z,100396.78
2022-10-17T18:43:09.067Z,100408.94
2022-10-17T18:45:38.060Z,100404.69
2022-10-17T18:48:07.544Z,100398.91
2022-10-17T18:50:36.818Z,100410.00
2022-10-17T18:53:05.866Z,100404.19
2022-10-17T18:55:40.102Z,100394.94
2022-10-17T18:58:09.146Z,100392.81
2022-10-17T19:00:38.192Z,100395.50
2022-10-17T19:03:07.725Z,100396.00
2022-10-17T19:05:39.990Z,100399.97
2022-10-17T19:08:09.324Z,100403.94
2022-10-17T19:10:39.839Z,100402.63
2022-10-17T19:13:09.731Z,100398.41
2022-10-17T19:15:38.979Z,100393.63
2022-10-17T19:18:08.024Z,100401.28
2022-10-17T19:20:37.055Z,100397.84
2022-10-17T19:23:06.119Z,100395.75
2022-10-17T19:25:35.388Z,100401.00
2022-10-17T19:28:06.154Z,100399.69
2022-10-17T19:30:35.118Z,100393.06
2022-10-17T19:33:04.095Z,100394.13
2022-10-17T19:35:33.892Z,100393.31
2022-10-17T19:38:03.036Z,100393.06
2022-10-17T19:40:32.019Z,100388.31
2022-10-17T19:43:01.051Z,100391.50
2022-10-17T19:45:31.484Z,100394.66
2022-10-17T19:48:00.471Z,100389.66
2022-10-17T19:50:29.539Z,100396.22
2022-10-17T19:52:58.509Z,100390.44
2022-10-17T19:55:27.497Z,100388.31
2022-10-17T19:57:56.632Z,100385.13
2022-10-17T20:00:25.869Z,100387.75
2022-10-17T20:02:56.243Z,100386.44
2022-10-17T20:05:43.702Z,100381.97
2022-10-17T20:08:31.136Z,100384.56
2022-10-17T20:11:20.404Z,100384.06
2022-10-17T20:14:07.835Z,100391.97
2022-10-17T20:16:55.050Z,100390.38
2022-10-17T20:19:43.840Z,100388.78
2022-10-17T20:22:31.639Z,100386.97
2022-10-17T20:25:19.703Z,100385.09
2022-10-17T20:28:07.375Z,100381.69
2022-10-17T20:30:54.995Z,100387.72
2022-10-17T20:33:42.499Z,100389.31
2022-10-17T20:36:32.333Z,100394.59
2022-10-17T20:39:21.901Z,100393.00
2022-10-17T20:42:09.225Z,100394.34
2022-10-17T20:44:56.858Z,100391.66
2022-10-17T20:47:49.129Z,100395.09
2022-10-17T20:50:39.275Z,100392.72
2022-10-17T20:53:43.331Z,100396.88
2022-10-17T20:56:32.850Z,100398.22
2022-10-17T20:59:20.363Z,100396.59
2022-10-17T21:02:08.239Z,100389.22
2022-10-17T21:04:55.921Z,100398.22
2022-10-17T21:07:43.428Z,100397.66
2022-10-17T21:10:35.249Z,100399.50
2022-10-17T21:13:22.974Z,100401.63
2022-10-17T21:16:13.147Z,100402.69
2022-10-17T21:19:01.139Z,100396.59
2022-10-17T21:21:48.518Z,100407.66
2022-10-17T21:24:36.160Z,100405.03
2022-10-17T21:27:25.171Z,100396.59
2022-10-17T21:30:13.095Z,100406.34
2022-10-17T21:33:00.441Z,100406.88
2022-10-17T21:35:47.727Z,100425.59
2022-10-17T21:38:37.415Z,100417.16
2022-10-17T21:41:28.091Z,100419.25
2022-10-17T21:44:19.095Z,100402.66
2022-10-17T21:47:06.877Z,100399.47
2022-10-17T21:49:54.072Z,100393.63
2022-10-17T21:52:41.546Z,100391.81
2022-10-17T21:55:29.079Z,100385.97
2022-10-17T21:58:16.483Z,100400.47
2022-10-17T22:01:11.857Z,100398.09
2022-10-17T22:04:01.948Z,100404.94
2022-10-17T22:06:52.405Z,100403.88
2022-10-17T22:09:39.704Z,100408.91
2022-10-17T22:12:26.955Z,100402.06
2022-10-17T22:18:08.209Z,100407.03
2022-10-17T22:20:55.495Z,100398.84
2022-10-17T22:23:44.397Z,100395.94
2022-10-17T22:26:34.200Z,100398.53
2022-10-17T22:29:21.644Z,100391.16
2022-10-17T22:32:09.309Z,100389.78
2022-10-17T22:34:57.976Z,100395.06
2022-10-17T22:37:45.816Z,100392.13
2022-10-17T22:40:33.437Z,100387.66
2022-10-17T22:43:20.715Z,100383.69
2022-10-17T22:46:09.056Z,100387.63
2022-10-17T22:48:56.191Z,100381.28
2022-10-17T22:51:45.131Z,100382.91
2022-10-17T22:54:32.902Z,100385.53
2022-10-17T22:57:20.264Z,100379.72
2022-10-17T23:00:11.165Z,100379.41
2022-10-17T23:02:58.470Z,100378.59
2022-10-17T23:05:46.471Z,100367.81
2022-10-17T23:08:35.564Z,100363.84
2022-10-17T23:11:22.833Z,100362.50
2022-10-17T23:14:10.220Z,100355.09
2022-10-17T23:16:57.817Z,100357.72
2022-10-17T23:19:45.390Z,100357.19
2022-10-17T23:22:32.913Z,100359.28
2022-10-17T23:25:22.018Z,100359.53
2022-10-17T23:28:09.621Z,100362.97
2022-10-17T23:30:57.149Z,100369.00
2022-10-17T23:33:46.219Z,100365.53
2022-10-17T23:36:33.532Z,100367.59
2022-10-17T23:39:21.261Z,100382.84
2022-10-17T23:42:10.144Z,100371.75
2022-10-17T23:44:57.467Z,100374.94
2022-10-17T23:47:44.868Z,100381.00
2022-10-17T23:50:32.181Z,100366.00
2022-10-17T23:53:19.452Z,100364.97
2022-10-17T23:56:08.572Z,100360.19
2022-10-17T23:58:57.491Z,100370.44
